sensor_id;sensor_type;location;lat;lon;timestamp;temperature;humidity
21459;DHT22;10891;49.350;19.386;2023-03-20T00:00:21;2.80;99.90
21459;DHT22;10891;49.350;19.386;2023-03-20T00:02:50;2.70;99.90
21459;DHT22;10891;49.350;19.386;2023-03-20T00:05:20;2.70;99.90
21459;DHT22;10891;49.350;19.386;2023-03-20T00:07:48;2.70;99.90
21459;DHT22;10891;49.350;19.386;2023-03-20T00:10:16;2.70;99.90
21459;DHT22;10891;49.350;19.386;2023-03-20T00:12:45;2.60;99.90
21459;DHT22;10891;49.350;19.386;2023-03-20T00:15:26;2.60;99.90
21459;DHT22;10891;49.350;19.386;2023-03-20T00:17:54;2.70;99.90
21459;DHT22;10891;49.350;19.386;2023-03-20T00:20:21;2.70;99.90
21459;DHT22;10891;49.350;19.386;2023-03-20T00:22:49;2.70;99.90
21459;DHT22;10891;49.350;19.386;2023-03-20T00:25:17;2.70;99.90
21459;DHT22;10891;49.350;19.386;2023-03-20T00:27:45;2.70;99.90
21459;DHT22;10891;49.350;19.386;2023-03-20T00:30:20;2.70;99.90
21459;DHT22;10891;49.350;19.386;2023-03-20T00:32:48;2.70;99.90
21459;DHT22;10891;49.350;19.386;2023-03-20T00:35:21;2.60;99.90
21459;DHT22;10891;49.350;19.386;2023-03-20T00:37:49;2.60;99.90
21459;DHT22;10891;49.350;19.386;2023-03-20T00:40:16;2.50;99.90
21459;DHT22;10891;49.350;19.386;2023-03-20T00:42:45;2.40;99.90
21459;DHT22;10891;49.350;19.386;2023-03-20T00:45:15;2.40;99.90
21459;DHT22;10891;49.350;19.386;2023-03-20T00:47:44;2.30;99.90
21459;DHT22;10891;49.350;19.386;2023-03-20T00:50:17;2.20;99.90
21459;DHT22;10891;49.350;19.386;2023-03-20T00:52:45;2.10;99.90
21459;DHT22;10891;49.350;19.386;2023-03-20T00:55:12;2.00;99.90
21459;DHT22;10891;49.350;19.386;2023-03-20T00:57:42;1.90;99.90
21459;DHT22;10891;49.350;19.386;2023-03-20T01:00:23;1.80;99.90
21459;DHT22;10891;49.350;19.386;2023-03-20T01:02:53;1.70;99.90
21459;DHT22;10891;49.350;19.386;2023-03-20T01:05:21;1.70;99.90
21459;DHT22;10891;49.350;19.386;2023-03-20T01:07:48;1.60;99.90
21459;DHT22;10891;49.350;19.386;2023-03-20T01:10:15;1.50;99.90
21459;DHT22;10891;49.350;19.386;2023-03-20T01:12:43;1.40;99.90
21459;DHT22;10891;49.350;19.386;2023-03-20T01:15:18;1.40;99.90
21459;DHT22;10891;49.350;19.386;2023-03-20T01:17:46;1.30;99.90
21459;DHT22;10891;49.350;19.386;2023-03-20T01:20:17;1.30;99.90
21459;DHT22;10891;49.350;19.386;2023-03-20T01:22:44;1.20;99.90
21459;DHT22;10891;49.350;19.386;2023-03-20T01:25:11;1.20;99.90
21459;DHT22;10891;49.350;19.386;2023-03-20T01:27:38;1.10;99.90
21459;DHT22;10891;49.350;19.386;2023-03-20T01:30:16;1.10;99.90
21459;DHT22;10891;49.350;19.386;2023-03-20T01:32:43;1.10;99.90
21459;DHT22;10891;49.350;19.386;2023-03-20T01:35:17;1.10;99.90
21459;DHT22;10891;49.350;19.386;2023-03-20T01:37:44;1.10;99.90
21459;DHT22;10891;49.350;19.386;2023-03-20T01:40:30;1.00;99.90
21459;DHT22;10891;49.350;19.386;2023-03-20T01:42:59;1.00;99.90
21459;DHT22;10891;49.350;19.386;2023-03-20T01:45:31;1.00;99.90
21459;DHT22;10891;49.350;19.386;2023-03-20T01:47:58;1.00;99.90
21459;DHT22;10891;49.350;19.386;2023-03-20T01:50:32;1.10;99.90
21459;DHT22;10891;49.350;19.386;2023-03-20T01:53:07;1.10;99.90
21459;DHT22;10891;49.350;19.386;2023-03-20T01:55:36;1.10;99.90
21459;DHT22;10891;49.350;19.386;2023-03-20T01:58:07;1.10;99.90
21459;DHT22;10891;49.350;19.386;2023-03-20T02:00:36;1.00;99.90
21459;DHT22;10891;49.350;19.386;2023-03-20T02:03:05;1.00;99.90
21459;DHT22;10891;49.350;19.386;2023-03-20T02:05:35;1.00;99.90
21459;DHT22;10891;49.350;19.386;2023-03-20T02:08:12;1.00;99.90
21459;DHT22;10891;49.350;19.386;2023-03-20T02:10:43;1.00;99.90
21459;DHT22;10891;49.350;19.386;2023-03-20T02:13:10;1.00;99.90
21459;DHT22;10891;49.350;19.386;2023-03-20T02:15:54;1.00;99.90
21459;DHT22;10891;49.350;19.386;2023-03-20T02:18:21;1.00;99.90
21459;DHT22;10891;49.350;19.386;2023-03-20T02:21:12;1.00;99.90
21459;DHT22;10891;49.350;19.386;2023-03-20T02:27:05;0.90;99.90
21459;DHT22;10891;49.350;19.386;2023-03-20T02:30:17;0.90;99.90
21459;DHT22;10891;49.350;19.386;2023-03-20T02:36:29;0.80;99.90
21459;DHT22;10891;49.350;19.386;2023-03-20T02:39:24;0.80;99.90
21459;DHT22;10891;49.350;19.386;2023-03-20T02:41:59;0.70;99.90
21459;DHT22;10891;49.350;19.386;2023-03-20T02:44:33;0.70;99.90
21459;DHT22;10891;49.350;19.386;2023-03-20T02:47:09;0.70;99.90
21459;DHT22;10891;49.350;19.386;2023-03-20T02:49:51;0.70;99.90
21459;DHT22;10891;49.350;19.386;2023-03-20T02:52:24;0.70;99.90
21459;DHT22;10891;49.350;19.386;2023-03-20T02:55:08;0.60;99.90
21459;DHT22;10891;49.350;19.386;2023-03-20T02:57:42;0.50;99.90
21459;DHT22;10891;49.350;19.386;2023-03-20T03:00:14;0.50;99.90
21459;DHT22;10891;49.350;19.386;2023-03-20T03:02:49;0.50;99.90
21459;DHT22;10891;49.350;19.386;2023-03-20T03:05:21;0.50;99.90
21459;DHT22;10891;49.350;19.386;2023-03-20T03:07:51;0.50;99.90
21459;DHT22;10891;49.350;19.386;2023-03-20T03:10:24;0.50;99.90
21459;DHT22;10891;49.350;19.386;2023-03-20T03:12:55;0.40;99.90
21459;DHT22;10891;49.350;19.386;2023-03-20T03:15:26;0.40;99.90
21459;DHT22;10891;49.350;19.386;2023-03-20T03:17:55;0.40;99.90
21459;DHT22;10891;49.350;19.386;2023-03-20T03:20:27;0.30;99.90
21459;DHT22;10891;49.350;19.386;2023-03-20T03:22:55;0.30;99.90
21459;DHT22;10891;49.350;19.386;2023-03-20T03:25:25;0.30;99.90
21459;DHT22;10891;49.350;19.386;2023-03-20T03:27:58;0.30;99.90
21459;DHT22;10891;49.350;19.386;2023-03-20T03:30:28;0.20;99.90
21459;DHT22;10891;49.350;19.386;2023-03-20T03:33:07;0.20;99.90
21459;DHT22;10891;49.350;19.386;2023-03-20T03:35:35;0.20;99.90
21459;DHT22;10891;49.350;19.386;2023-03-20T03:38:09;0.20;99.90
21459;DHT22;10891;49.350;19.386;2023-03-20T03:40:43;0.20;99.90
21459;DHT22;10891;49.350;19.386;2023-03-20T03:43:16;0.10;99.90
21459;DHT22;10891;49.350;19.386;2023-03-20T03:45:47;0.10;99.90
21459;DHT22;10891;49.350;19.386;2023-03-20T03:48:16;0.10;99.90
21459;DHT22;10891;49.350;19.386;2023-03-20T03:50:48;0.10;99.90
21459;DHT22;10891;49.350;19.386;2023-03-20T03:53:18;0.10;99.90
21459;DHT22;10891;49.350;19.386;2023-03-20T03:55:50;0.10;99.90
21459;DHT22;10891;49.350;19.386;2023-03-20T03:58:20;0.10;99.90
21459;DHT22;10891;49.350;19.386;2023-03-20T04:00:49;0.10;99.90
21459;DHT22;10891;49.350;19.386;2023-03-20T04:03:20;0.10;99.90
21459;DHT22;10891;49.350;19.386;2023-03-20T04:05:51;0.10;99.90
21459;DHT22;10891;49.350;19.386;2023-03-20T04:08:20;0.00;99.90
21459;DHT22;10891;49.350;19.386;2023-03-20T04:10:48;0.00;99.90
21459;DHT22;10891;49.350;19.386;2023-03-20T04:13:15;0.00;99.90
21459;DHT22;10891;49.350;19.386;2023-03-20T04:15:43;0.00;99.90
21459;DHT22;10891;49.350;19.386;2023-03-20T04:18:14;0.00;99.90
21459;DHT22;10891;49.350;19.386;2023-03-20T04:20:41;0.00;99.90
21459;DHT22;10891;49.350;19.386;2023-03-20T04:23:08;0.00;99.90
21459;DHT22;10891;49.350;19.386;2023-03-20T04:25:35;0.00;99.90
21459;DHT22;10891;49.350;19.386;2023-03-20T04:28:04;0.00;99.90
21459;DHT22;10891;49.350;19.386;2023-03-20T04:30:31;0.00;99.90
21459;DHT22;10891;49.350;19.386;2023-03-20T04:32:58;0.00;99.90
21459;DHT22;10891;49.350;19.386;2023-03-20T04:35:25;0.00;99.90
21459;DHT22;10891;49.350;19.386;2023-03-20T04:37:52;0.00;99.90
21459;DHT22;10891;49.350;19.386;2023-03-20T04:40:19;-0.10;99.90
21459;DHT22;10891;49.350;19.386;2023-03-20T04:42:46;0.00;99.90
21459;DHT22;10891;49.350;19.386;2023-03-20T04:45:14;-0.10;99.90
21459;DHT22;10891;49.350;19.386;2023-03-20T04:47:41;-0.10;99.90
21459;DHT22;10891;49.350;19.386;2023-03-20T04:50:09;-0.10;99.90
21459;DHT22;10891;49.350;19.386;2023-03-20T04:52:38;0.00;99.90
21459;DHT22;10891;49.350;19.386;2023-03-20T04:55:05;0.00;99.90
21459;DHT22;10891;49.350;19.386;2023-03-20T04:57:33;0.00;99.90
21459;DHT22;10891;49.350;19.386;2023-03-20T05:00:00;0.10;99.90
21459;DHT22;10891;49.350;19.386;2023-03-20T05:02:28;0.30;99.90
21459;DHT22;10891;49.350;19.386;2023-03-20T05:04:55;0.40;99.90
21459;DHT22;10891;49.350;19.386;2023-03-20T05:07:22;0.50;99.90
21459;DHT22;10891;49.350;19.386;2023-03-20T05:09:49;0.50;99.90
21459;DHT22;10891;49.350;19.386;2023-03-20T05:12:15;0.50;99.90
21459;DHT22;10891;49.350;19.386;2023-03-20T05:14:42;0.60;99.90
21459;DHT22;10891;49.350;19.386;2023-03-20T05:17:12;0.80;99.90
21459;DHT22;10891;49.350;19.386;2023-03-20T05:19:40;0.90;99.90
21459;DHT22;10891;49.350;19.386;2023-03-20T05:22:07;1.00;99.90
21459;DHT22;10891;49.350;19.386;2023-03-20T05:24:34;1.10;99.90
21459;DHT22;10891;49.350;19.386;2023-03-20T05:27:01;1.20;99.90
21459;DHT22;10891;49.350;19.386;2023-03-20T05:29:28;1.30;99.90
21459;DHT22;10891;49.350;19.386;2023-03-20T05:31:55;1.50;99.90
21459;DHT22;10891;49.350;19.386;2023-03-20T05:34:22;1.60;99.90
21459;DHT22;10891;49.350;19.386;2023-03-20T05:36:51;1.70;99.90
21459;DHT22;10891;49.350;19.386;2023-03-20T05:39:18;1.80;99.90
21459;DHT22;10891;49.350;19.386;2023-03-20T05:41:45;1.90;99.90
21459;DHT22;10891;49.350;19.386;2023-03-20T05:44:11;2.00;99.90
21459;DHT22;10891;49.350;19.386;2023-03-20T05:46:38;2.00;99.90
21459;DHT22;10891;49.350;19.386;2023-03-20T05:49:06;2.00;99.90
21459;DHT22;10891;49.350;19.386;2023-03-20T05:51:33;2.00;99.90
21459;DHT22;10891;49.350;19.386;2023-03-20T05:54:02;2.20;99.90
21459;DHT22;10891;49.350;19.386;2023-03-20T05:56:29;2.30;99.90
21459;DHT22;10891;49.350;19.386;2023-03-20T05:58:56;2.50;99.90
21459;DHT22;10891;49.350;19.386;2023-03-20T06:01:24;2.60;99.90
21459;DHT22;10891;49.350;19.386;2023-03-20T06:03:51;2.80;99.90
21459;DHT22;10891;49.350;19.386;2023-03-20T06:06:18;2.90;99.90
21459;DHT22;10891;49.350;19.386;2023-03-20T06:08:45;3.00;99.90
21459;DHT22;10891;49.350;19.386;2023-03-20T06:11:13;3.10;99.90
21459;DHT22;10891;49.350;19.386;2023-03-20T06:13:40;3.10;99.90
21459;DHT22;10891;49.350;19.386;2023-03-20T06:16:08;3.10;99.90
21459;DHT22;10891;49.350;19.386;2023-03-20T06:18:35;3.10;99.90
21459;DHT22;10891;49.350;19.386;2023-03-20T06:21:04;3.20;99.90
21459;DHT22;10891;49.350;19.386;2023-03-20T06:23:31;3.30;99.90
21459;DHT22;10891;49.350;19.386;2023-03-20T06:25:58;3.50;99.90
21459;DHT22;10891;49.350;19.386;2023-03-20T06:28:26;3.60;99.90
21459;DHT22;10891;49.350;19.386;2023-03-20T06:30:53;3.80;99.90
21459;DHT22;10891;49.350;19.386;2023-03-20T06:33:21;3.80;99.90
21459;DHT22;10891;49.350;19.386;2023-03-20T06:35:48;4.10;99.90
21459;DHT22;10891;49.350;19.386;2023-03-20T06:38:15;4.30;99.90
21459;DHT22;10891;49.350;19.386;2023-03-20T06:40:42;4.60;99.90
21459;DHT22;10891;49.350;19.386;2023-03-20T06:43:09;5.00;99.90
21459;DHT22;10891;49.350;19.386;2023-03-20T06:45:38;5.30;99.90
21459;DHT22;10891;49.350;19.386;2023-03-20T06:48:05;5.40;99.90
21459;DHT22;10891;49.350;19.386;2023-03-20T06:50:32;5.50;99.90
21459;DHT22;10891;49.350;19.386;2023-03-20T06:52:59;5.60;99.90
21459;DHT22;10891;49.350;19.386;2023-03-20T06:55:26;5.60;99.90
21459;DHT22;10891;49.350;19.386;2023-03-20T06:57:53;5.50;99.90
21459;DHT22;10891;49.350;19.386;2023-03-20T07:00:20;5.60;99.90
21459;DHT22;10891;49.350;19.386;2023-03-20T07:02:48;5.70;99.90
21459;DHT22;10891;49.350;19.386;2023-03-20T07:05:15;5.90;99.90
21459;DHT22;10891;49.350;19.386;2023-03-20T07:07:43;6.20;99.90
21459;DHT22;10891;49.350;19.386;2023-03-20T07:10:10;6.50;99.90
21459;DHT22;10891;49.350;19.386;2023-03-20T07:12:38;6.40;99.90
21459;DHT22;10891;49.350;19.386;2023-03-20T07:15:05;6.10;99.90
21459;DHT22;10891;49.350;19.386;2023-03-20T07:17:32;6.10;99.90
21459;DHT22;10891;49.350;19.386;2023-03-20T07:20:01;5.90;99.90
21459;DHT22;10891;49.350;19.386;2023-03-20T07:22:29;6.00;99.90
21459;DHT22;10891;49.350;19.386;2023-03-20T07:24:57;6.00;99.90
21459;DHT22;10891;49.350;19.386;2023-03-20T07:27:23;6.20;99.90
21459;DHT22;10891;49.350;19.386;2023-03-20T07:29:50;6.30;99.90
21459;DHT22;10891;49.350;19.386;2023-03-20T07:32:17;6.40;99.90
21459;DHT22;10891;49.350;19.386;2023-03-20T07:34:45;6.50;99.90
21459;DHT22;10891;49.350;19.386;2023-03-20T07:37:14;6.40;99.90
21459;DHT22;10891;49.350;19.386;2023-03-20T07:39:41;6.30;99.90
21459;DHT22;10891;49.350;19.386;2023-03-20T07:42:08;6.50;99.90
21459;DHT22;10891;49.350;19.386;2023-03-20T07:44:35;6.60;99.90
21459;DHT22;10891;49.350;19.386;2023-03-20T07:47:02;6.60;99.90
21459;DHT22;10891;49.350;19.386;2023-03-20T07:49:30;6.60;99.90
21459;DHT22;10891;49.350;19.386;2023-03-20T07:51:57;6.60;99.90
21459;DHT22;10891;49.350;19.386;2023-03-20T07:54:26;6.60;99.90
21459;DHT22;10891;49.350;19.386;2023-03-20T07:56:52;6.70;99.90
21459;DHT22;10891;49.350;19.386;2023-03-20T07:59:19;6.80;99.90
21459;DHT22;10891;49.350;19.386;2023-03-20T08:01:46;6.80;99.90
21459;DHT22;10891;49.350;19.386;2023-03-20T08:04:13;6.80;99.90
21459;DHT22;10891;49.350;19.386;2023-03-20T08:06:43;7.00;99.90
21459;DHT22;10891;49.350;19.386;2023-03-20T08:09:10;7.30;99.90
21459;DHT22;10891;49.350;19.386;2023-03-20T08:11:39;7.40;99.90
21459;DHT22;10891;49.350;19.386;2023-03-20T08:14:06;7.70;99.90
21459;DHT22;10891;49.350;19.386;2023-03-20T08:16:33;7.70;99.90
21459;DHT22;10891;49.350;19.386;2023-03-20T08:19:00;7.60;99.90
21459;DHT22;10891;49.350;19.386;2023-03-20T08:21:27;7.60;99.90
21459;DHT22;10891;49.350;19.386;2023-03-20T08:23:55;7.80;99.90
21459;DHT22;10891;49.350;19.386;2023-03-20T08:26:22;7.90;99.90
21459;DHT22;10891;49.350;19.386;2023-03-20T08:28:50;8.10;99.90
21459;DHT22;10891;49.350;19.386;2023-03-20T08:31:17;8.00;99.90
21459;DHT22;10891;49.350;19.386;2023-03-20T08:33:46;8.30;99.90
21459;DHT22;10891;49.350;19.386;2023-03-20T08:36:13;8.60;99.90
21459;DHT22;10891;49.350;19.386;2023-03-20T08:38:41;8.90;99.90
21459;DHT22;10891;49.350;19.386;2023-03-20T08:41:08;9.20;99.90
21459;DHT22;10891;49.350;19.386;2023-03-20T08:43:35;9.60;99.90
21459;DHT22;10891;49.350;19.386;2023-03-20T08:46:05;9.90;99.90
21459;DHT22;10891;49.350;19.386;2023-03-20T08:48:32;10.20;99.90
21459;DHT22;10891;49.350;19.386;2023-03-20T08:50:59;10.50;99.90
21459;DHT22;10891;49.350;19.386;2023-03-20T08:53:26;10.80;99.90
21459;DHT22;10891;49.350;19.386;2023-03-20T08:55:53;10.80;99.90
21459;DHT22;10891;49.350;19.386;2023-03-20T08:58:21;10.60;99.90
21459;DHT22;10891;49.350;19.386;2023-03-20T09:00:48;10.70;99.90
21459;DHT22;10891;49.350;19.386;2023-03-20T09:03:18;10.80;99.90
21459;DHT22;10891;49.350;19.386;2023-03-20T09:05:46;10.90;99.90
21459;DHT22;10891;49.350;19.386;2023-03-20T09:08:14;11.10;99.90
21459;DHT22;10891;49.350;19.386;2023-03-20T09:10:42;11.30;99.90
21459;DHT22;10891;49.350;19.386;2023-03-20T09:13:09;11.50;99.90
21459;DHT22;10891;49.350;19.386;2023-03-20T09:15:36;11.70;99.90
21459;DHT22;10891;49.350;19.386;2023-03-20T09:18:03;12.00;99.90
21459;DHT22;10891;49.350;19.386;2023-03-20T09:20:31;12.20;99.90
21459;DHT22;10891;49.350;19.386;2023-03-20T09:22:58;12.30;99.90
21459;DHT22;10891;49.350;19.386;2023-03-20T09:25:26;12.30;99.90
21459;DHT22;10891;49.350;19.386;2023-03-20T09:27:53;12.30;99.90
21459;DHT22;10891;49.350;19.386;2023-03-20T09:30:21;12.40;99.90
21459;DHT22;10891;49.350;19.386;2023-03-20T09:32:48;12.40;99.90
21459;DHT22;10891;49.350;19.386;2023-03-20T09:35:16;12.40;99.90
21459;DHT22;10891;49.350;19.386;2023-03-20T09:37:44;12.50;99.90
21459;DHT22;10891;49.350;19.386;2023-03-20T09:40:21;12.60;99.90
21459;DHT22;10891;49.350;19.386;2023-03-20T09:42:53;12.90;99.90
21459;DHT22;10891;49.350;19.386;2023-03-20T09:45:31;13.10;99.90
21459;DHT22;10891;49.350;19.386;2023-03-20T09:48:02;13.20;99.90
21459;DHT22;10891;49.350;19.386;2023-03-20T09:50:34;13.40;99.90
21459;DHT22;10891;49.350;19.386;2023-03-20T09:53:09;13.60;99.90
21459;DHT22;10891;49.350;19.386;2023-03-20T09:55:39;13.80;99.90
21459;DHT22;10891;49.350;19.386;2023-03-20T09:58:12;14.00;99.90
21459;DHT22;10891;49.350;19.386;2023-03-20T10:00:43;14.50;99.90
21459;DHT22;10891;49.350;19.386;2023-03-20T10:03:18;15.30;99.70
21459;DHT22;10891;49.350;19.386;2023-03-20T10:05:48;15.90;98.60
21459;DHT22;10891;49.350;19.386;2023-03-20T10:08:20;16.40;97.00
21459;DHT22;10891;49.350;19.386;2023-03-20T10:10:53;16.90;96.30
21459;DHT22;10891;49.350;19.386;2023-03-20T10:13:50;16.80;96.50
21459;DHT22;10891;49.350;19.386;2023-03-20T10:16:28;17.00;96.40
21459;DHT22;10891;49.350;19.386;2023-03-20T10:19:03;17.20;95.40
21459;DHT22;10891;49.350;19.386;2023-03-20T10:21:38;17.10;96.10
21459;DHT22;10891;49.350;19.386;2023-03-20T10:24:13;16.80;96.10
21459;DHT22;10891;49.350;19.386;2023-03-20T10:26:46;16.80;96.20
21459;DHT22;10891;49.350;19.386;2023-03-20T10:29:22;16.50;95.70
21459;DHT22;10891;49.350;19.386;2023-03-20T10:31:55;16.30;95.50
21459;DHT22;10891;49.350;19.386;2023-03-20T10:34:37;16.00;96.10
21459;DHT22;10891;49.350;19.386;2023-03-20T10:37:20;15.90;97.00
21459;DHT22;10891;49.350;19.386;2023-03-20T10:39:59;15.80;96.50
21459;DHT22;10891;49.350;19.386;2023-03-20T10:42:34;16.20;97.10
21459;DHT22;10891;49.350;19.386;2023-03-20T10:45:06;16.40;96.00
21459;DHT22;10891;49.350;19.386;2023-03-20T10:47:40;17.00;97.10
21459;DHT22;10891;49.350;19.386;2023-03-20T10:50:13;16.80;97.90
21459;DHT22;10891;49.350;19.386;2023-03-20T10:52:43;16.70;97.80
21459;DHT22;10891;49.350;19.386;2023-03-20T10:55:17;16.50;97.60
21459;DHT22;10891;49.350;19.386;2023-03-20T10:57:48;16.50;97.40
21459;DHT22;10891;49.350;19.386;2023-03-20T11:00:19;16.70;97.10
21459;DHT22;10891;49.350;19.386;2023-03-20T11:02:47;16.90;98.00
21459;DHT22;10891;49.350;19.386;2023-03-20T11:05:21;17.00;97.20
21459;DHT22;10891;49.350;19.386;2023-03-20T11:07:50;16.90;97.80
21459;DHT22;10891;49.350;19.386;2023-03-20T11:10:27;16.50;97.50
21459;DHT22;10891;49.350;19.386;2023-03-20T11:12:56;16.50;98.00
21459;DHT22;10891;49.350;19.386;2023-03-20T11:15:25;16.40;97.70
21459;DHT22;10891;49.350;19.386;2023-03-20T11:17:53;16.60;97.90
21459;DHT22;10891;49.350;19.386;2023-03-20T11:20:21;16.40;98.10
21459;DHT22;10891;49.350;19.386;2023-03-20T11:22:49;16.40;98.10
21459;DHT22;10891;49.350;19.386;2023-03-20T11:25:29;16.20;98.20
21459;DHT22;10891;49.350;19.386;2023-03-20T11:27:57;16.30;98.10
21459;DHT22;10891;49.350;19.386;2023-03-20T11:30:43;16.00;98.20
21459;DHT22;10891;49.350;19.386;2023-03-20T11:33:11;15.40;99.00
21459;DHT22;10891;49.350;19.386;2023-03-20T11:35:38;15.20;99.90
21459;DHT22;10891;49.350;19.386;2023-03-20T11:38:13;15.60;99.90
21459;DHT22;10891;49.350;19.386;2023-03-20T11:40:42;16.20;98.40
21459;DHT22;10891;49.350;19.386;2023-03-20T11:43:11;16.50;98.20
21459;DHT22;10891;49.350;19.386;2023-03-20T11:45:40;16.30;98.00
21459;DHT22;10891;49.350;19.386;2023-03-20T11:48:16;16.60;97.80
21459;DHT22;10891;49.350;19.386;2023-03-20T11:50:45;16.70;97.90
21459;DHT22;10891;49.350;19.386;2023-03-20T11:53:22;16.80;97.50
21459;DHT22;10891;49.350;19.386;2023-03-20T11:56:10;16.70;97.30
21459;DHT22;10891;49.350;19.386;2023-03-20T11:58:45;16.30;98.20
21459;DHT22;10891;49.350;19.386;2023-03-20T12:01:13;15.80;98.80
21459;DHT22;10891;49.350;19.386;2023-03-20T12:03:50;15.60;99.30
21459;DHT22;10891;49.350;19.386;2023-03-20T12:06:21;15.40;99.70
21459;DHT22;10891;49.350;19.386;2023-03-20T12:08:52;15.50;99.40
21459;DHT22;10891;49.350;19.386;2023-03-20T12:11:44;15.50;99.50
21459;DHT22;10891;49.350;19.386;2023-03-20T12:14:19;15.90;99.50
21459;DHT22;10891;49.350;19.386;2023-03-20T12:16:51;16.70;98.40
21459;DHT22;10891;49.350;19.386;2023-03-20T12:19:22;17.30;98.30
21459;DHT22;10891;49.350;19.386;2023-03-20T12:21:54;17.10;97.70
21459;DHT22;10891;49.350;19.386;2023-03-20T12:24:28;16.50;98.50
21459;DHT22;10891;49.350;19.386;2023-03-20T12:27:11;15.80;98.80
21459;DHT22;10891;49.350;19.386;2023-03-20T12:29:43;15.40;99.30
21459;DHT22;10891;49.350;19.386;2023-03-20T12:32:15;15.00;99.60
21459;DHT22;10891;49.350;19.386;2023-03-20T12:34:46;14.50;99.90
21459;DHT22;10891;49.350;19.386;2023-03-20T12:37:14;14.60;99.90
21459;DHT22;10891;49.350;19.386;2023-03-20T12:39:48;14.50;99.90
21459;DHT22;10891;49.350;19.386;2023-03-20T12:42:26;14.60;99.90
21459;DHT22;10891;49.350;19.386;2023-03-20T12:45:02;14.80;99.90
21459;DHT22;10891;49.350;19.386;2023-03-20T12:50:47;14.20;99.90
21459;DHT22;10891;49.350;19.386;2023-03-20T12:53:33;14.40;99.90
21459;DHT22;10891;49.350;19.386;2023-03-20T12:56:12;14.60;99.90
21459;DHT22;10891;49.350;19.386;2023-03-20T12:58:43;14.90;99.90
21459;DHT22;10891;49.350;19.386;2023-03-20T13:01:18;14.80;99.90
21459;DHT22;10891;49.350;19.386;2023-03-20T13:06:40;14.70;99.90
21459;DHT22;10891;49.350;19.386;2023-03-20T13:09:32;14.80;99.90
21459;DHT22;10891;49.350;19.386;2023-03-20T13:12:06;15.00;99.90
21459;DHT22;10891;49.350;19.386;2023-03-20T13:14:43;15.00;99.80
21459;DHT22;10891;49.350;19.386;2023-03-20T13:17:17;15.10;99.60
21459;DHT22;10891;49.350;19.386;2023-03-20T13:19:51;15.50;99.90
21459;DHT22;10891;49.350;19.386;2023-03-20T13:22:24;15.90;98.60
21459;DHT22;10891;49.350;19.386;2023-03-20T13:25:01;16.30;98.10
21459;DHT22;10891;49.350;19.386;2023-03-20T13:27:35;16.60;97.80
21459;DHT22;10891;49.350;19.386;2023-03-20T13:30:14;16.80;97.50
21459;DHT22;10891;49.350;19.386;2023-03-20T13:32:53;16.50;97.10
21459;DHT22;10891;49.350;19.386;2023-03-20T13:35:30;16.10;97.90
21459;DHT22;10891;49.350;19.386;2023-03-20T13:38:08;15.60;98.30
21459;DHT22;10891;49.350;19.386;2023-03-20T13:40:39;15.40;98.50
21459;DHT22;10891;49.350;19.386;2023-03-20T13:43:23;15.50;98.60
21459;DHT22;10891;49.350;19.386;2023-03-20T13:45:58;15.50;98.90
21459;DHT22;10891;49.350;19.386;2023-03-20T13:48:32;15.40;98.50
21459;DHT22;10891;49.350;19.386;2023-03-20T13:53:54;15.20;99.00
21459;DHT22;10891;49.350;19.386;2023-03-20T13:56:34;15.00;99.40
21459;DHT22;10891;49.350;19.386;2023-03-20T13:59:36;14.80;99.80
21459;DHT22;10891;49.350;19.386;2023-03-20T14:05:17;14.70;99.90
21459;DHT22;10891;49.350;19.386;2023-03-20T14:07:47;14.40;99.90
21459;DHT22;10891;49.350;19.386;2023-03-20T14:10:35;14.10;99.90
21459;DHT22;10891;49.350;19.386;2023-03-20T14:13:08;14.10;99.90
21459;DHT22;10891;49.350;19.386;2023-03-20T14:15:39;13.90;99.90
21459;DHT22;10891;49.350;19.386;2023-03-20T15:56:03;12.90;99.90
21459;DHT22;10891;49.350;19.386;2023-03-20T15:58:30;12.70;99.90
21459;DHT22;10891;49.350;19.386;2023-03-20T16:00:59;12.70;99.90
21459;DHT22;10891;49.350;19.386;2023-03-20T16:03:27;12.60;99.90
21459;DHT22;10891;49.350;19.386;2023-03-20T16:05:58;12.70;99.90
21459;DHT22;10891;49.350;19.386;2023-03-20T16:08:27;12.70;99.90
21459;DHT22;10891;49.350;19.386;2023-03-20T16:10:57;12.70;99.90
21459;DHT22;10891;49.350;19.386;2023-03-20T16:13:29;12.60;99.90
21459;DHT22;10891;49.350;19.386;2023-03-20T16:15:59;12.50;99.90
21459;DHT22;10891;49.350;19.386;2023-03-20T16:18:29;12.40;99.90
21459;DHT22;10891;49.350;19.386;2023-03-20T16:21:02;12.30;99.90
21459;DHT22;10891;49.350;19.386;2023-03-20T16:23:33;12.20;99.90
21459;DHT22;10891;49.350;19.386;2023-03-20T16:26:02;12.20;99.90
21459;DHT22;10891;49.350;19.386;2023-03-20T16:28:34;12.20;99.90
21459;DHT22;10891;49.350;19.386;2023-03-20T16:31:07;12.10;99.90
21459;DHT22;10891;49.350;19.386;2023-03-20T16:33:34;12.00;99.90
21459;DHT22;10891;49.350;19.386;2023-03-20T16:36:03;11.90;99.90
21459;DHT22;10891;49.350;19.386;2023-03-20T16:38:32;11.80;99.90
21459;DHT22;10891;49.350;19.386;2023-03-20T16:41:14;11.70;99.90
21459;DHT22;10891;49.350;19.386;2023-03-20T16:43:48;11.50;99.90
21459;DHT22;10891;49.350;19.386;2023-03-20T16:46:19;11.40;99.90
21459;DHT22;10891;49.350;19.386;2023-03-20T16:48:50;11.30;99.90
21459;DHT22;10891;49.350;19.386;2023-03-20T16:51:19;11.30;99.90
21459;DHT22;10891;49.350;19.386;2023-03-20T16:53:52;11.30;99.90
21459;DHT22;10891;49.350;19.386;2023-03-20T16:56:25;11.30;99.90
21459;DHT22;10891;49.350;19.386;2023-03-20T16:58:55;11.40;99.90
21459;DHT22;10891;49.350;19.386;2023-03-20T17:01:23;11.30;99.90
21459;DHT22;10891;49.350;19.386;2023-03-20T17:03:54;11.40;99.90
21459;DHT22;10891;49.350;19.386;2023-03-20T17:06:42;11.30;99.90
21459;DHT22;10891;49.350;19.386;2023-03-20T17:09:18;11.30;99.90
21459;DHT22;10891;49.350;19.386;2023-03-20T17:11:48;11.30;99.90
21459;DHT22;10891;49.350;19.386;2023-03-20T17:14:17;11.30;99.90
21459;DHT22;10891;49.350;19.386;2023-03-20T17:16:44;11.20;99.90
21459;DHT22;10891;49.350;19.386;2023-03-20T17:19:14;11.20;99.90
21459;DHT22;10891;49.350;19.386;2023-03-20T17:21:42;11.00;99.90
21459;DHT22;10891;49.350;19.386;2023-03-20T17:24:09;10.90;99.90
21459;DHT22;10891;49.350;19.386;2023-03-20T17:26:36;10.80;99.90
21459;DHT22;10891;49.350;19.386;2023-03-20T17:29:04;10.80;99.90
21459;DHT22;10891;49.350;19.386;2023-03-20T17:31:33;10.60;99.90
21459;DHT22;10891;49.350;19.386;2023-03-20T17:34:00;10.50;99.90
21459;DHT22;10891;49.350;19.386;2023-03-20T17:36:29;10.40;99.90
21459;DHT22;10891;49.350;19.386;2023-03-20T17:38:58;10.30;99.90
21459;DHT22;10891;49.350;19.386;2023-03-20T17:41:26;10.10;99.90
21459;DHT22;10891;49.350;19.386;2023-03-20T17:43:54;10.00;99.90